Hauptseite
METAR-TAF:

METAR-TAF

Flughäfen :

Flughafen Cuneo

Cuneo, Italien

Breite: 44-32-47N, Länge: 007-37-20E, Höhe: 386 m

Beobachtung

Neuester Wetterbericht von vor 2 Stunden und 27 Minuten, um 13:50 UTC
Wind 11 kt aus Süd/Südwest
Temperatur 21°C
Luftfeuchtigkeit 94%
Luftdruck 1011 hPa
Sichtweite: 9000 m
Aufgelockert bewölkt in der Höhe von 3000 ft
Durchbrochene Bewölkung in der Höhe von 6000 ft
Regen

METAR: LIMZ 161350Z 20011KT 9000 SCT030 BKN060 21/20 Q1011 RA

Zeit: 18:17 (16:17 UTC)

Prognose

Neuester Wetterbericht von vor 5 Stunden und 17 Minuten, um 11:00 UTC
Gültige Prognose vom 16 um 12 UTC bis 17 um 12 UTC
Wind 5 kt aus unterschiedlichen Richtungen
Sichtweite 10 km oder mehr
Aufgelockert bewölkt in der Höhe von 2500 ft
Durchbrochene Bewölkung in der Höhe von 6000 ft
Zeitweise
vom 16 um 12 UTC bis 16 um 20 UTC
Gewitter, Regen

TAF: LIMZ 161100Z 1612/1712 VRB05KT 9999 SCT025 BKN060 TEMPO 1612/1620 TSRA

Wetterbeobachtungen und Prognosen von mehr als 4000 Flughäfen (METAR und TAF Bericht).

Die verfügbaren Stationen werden durch gelbe und rote Markierungen auf der Karte dargestellt.

Führen Sie die Maus auf sie, um den Namen der Station zu sehen.

Darauf klicken, um die Beobachtung von Wetterbeobachtungen und Prognosen zu sehen.

Um die Karte zu ändern : klicken Sie auf den grünen Tasten mit einem schwarzen Kreuz Zum Vergrößern, auf den grünen Button mit einem Gedankenstrich zu verkleinern, oder auf die grünen Pfeile für benachbarte Karten.


METAR-TAF: